sensor_id;sensor_type;location;lat;lon;timestamp;pressure;altitude;pressure_sealevel;temperature;humidity
65880;BME280;52661;51.364;6.054;2024-01-30T00:00:53;102301.56;;;7.63;100.00
65880;BME280;52661;51.364;6.054;2024-01-30T00:03:19;102297.44;;;7.66;100.00
65880;BME280;52661;51.364;6.054;2024-01-30T00:05:44;102303.97;;;7.65;100.00
65880;BME280;52661;51.364;6.054;2024-01-30T00:08:10;102305.06;;;7.64;100.00
65880;BME280;52661;51.364;6.054;2024-01-30T00:10:35;102313.19;;;7.64;100.00
65880;BME280;52661;51.364;6.054;2024-01-30T00:13:01;102297.63;;;7.61;100.00
65880;BME280;52661;51.364;6.054;2024-01-30T00:15:27;102301.44;;;7.60;100.00
65880;BME280;52661;51.364;6.054;2024-01-30T00:17:53;102297.19;;;7.59;100.00
65880;BME280;52661;51.364;6.054;2024-01-30T00:20:18;102297.97;;;7.59;100.00
65880;BME280;52661;51.364;6.054;2024-01-30T00:22:44;102289.88;;;7.59;100.00
65880;BME280;52661;51.364;6.054;2024-01-30T00:25:09;102297.84;;;7.56;100.00
65880;BME280;52661;51.364;6.054;2024-01-30T00:27:34;102297.38;;;7.54;100.00
65880;BME280;52661;51.364;6.054;2024-01-30T00:30:00;102292.31;;;7.52;100.00
65880;BME280;52661;51.364;6.054;2024-01-30T00:32:25;102298.34;;;7.49;100.00
65880;BME280;52661;51.364;6.054;2024-01-30T00:34:50;102288.19;;;7.46;100.00
65880;BME280;52661;51.364;6.054;2024-01-30T00:37:16;102294.75;;;7.45;100.00
65880;BME280;52661;51.364;6.054;2024-01-30T00:39:41;102290.78;;;7.42;100.00
65880;BME280;52661;51.364;6.054;2024-01-30T00:42:07;102292.53;;;7.38;100.00
65880;BME280;52661;51.364;6.054;2024-01-30T00:44:35;102298.88;;;7.42;100.00
65880;BME280;52661;51.364;6.054;2024-01-30T00:47:02;102292.53;;;7.38;100.00
65880;BME280;52661;51.364;6.054;2024-01-30T00:49:28;102301.00;;;7.37;100.00
65880;BME280;52661;51.364;6.054;2024-01-30T00:51:54;102301.13;;;7.40;100.00
65880;BME280;52661;51.364;6.054;2024-01-30T00:54:20;102297.63;;;7.40;100.00
65880;BME280;52661;51.364;6.054;2024-01-30T00:56:45;102299.53;;;7.39;100.00
65880;BME280;52661;51.364;6.054;2024-01-30T00:59:11;102294.13;;;7.39;100.00
65880;BME280;52661;51.364;6.054;2024-01-30T01:01:36;102288.28;;;7.37;100.00
65880;BME280;52661;51.364;6.054;2024-01-30T01:04:02;102290.19;;;7.37;100.00
65880;BME280;52661;51.364;6.054;2024-01-30T01:06:27;102288.59;;;7.36;100.00
65880;BME280;52661;51.364;6.054;2024-01-30T01:08:53;102284.66;;;7.33;100.00
65880;BME280;52661;51.364;6.054;2024-01-30T01:11:18;102285.63;;;7.29;100.00
65880;BME280;52661;51.364;6.054;2024-01-30T01:13:43;102287.53;;;7.28;100.00
65880;BME280;52661;51.364;6.054;2024-01-30T01:16:09;102287.41;;;7.25;100.00
65880;BME280;52661;51.364;6.054;2024-01-30T01:18:34;102289.13;;;7.29;100.00
65880;BME280;52661;51.364;6.054;2024-01-30T01:20:59;102285.81;;;7.24;100.00
65880;BME280;52661;51.364;6.054;2024-01-30T01:23:25;102285.94;;;7.27;100.00
65880;BME280;52661;51.364;6.054;2024-01-30T01:25:51;102288.50;;;7.24;100.00
65880;BME280;52661;51.364;6.054;2024-01-30T01:28:16;102285.81;;;7.24;100.00
65880;BME280;52661;51.364;6.054;2024-01-30T01:30:42;102281.34;;;7.28;100.00
65880;BME280;52661;51.364;6.054;2024-01-30T01:33:07;102287.53;;;7.28;100.00
65880;BME280;52661;51.364;6.054;2024-01-30T01:35:32;102276.94;;;7.23;100.00
65880;BME280;52661;51.364;6.054;2024-01-30T01:37:58;102281.72;;;7.18;100.00
65880;BME280;52661;51.364;6.054;2024-01-30T01:40:26;102271.41;;;7.20;100.00
65880;BME280;52661;51.364;6.054;2024-01-30T01:42:53;102278.44;;;7.12;100.00
65880;BME280;52661;51.364;6.054;2024-01-30T01:45:19;102268.88;;;7.15;100.00
65880;BME280;52661;51.364;6.054;2024-01-30T01:47:47;102269.00;;;7.18;100.00
65880;BME280;52661;51.364;6.054;2024-01-30T01:50:14;102270.75;;;7.23;100.00
65880;BME280;52661;51.364;6.054;2024-01-30T01:52:43;102273.75;;;7.21;100.00
65880;BME280;52661;51.364;6.054;2024-01-30T01:55:09;102265.66;;;7.21;100.00
65880;BME280;52661;51.364;6.054;2024-01-30T01:57:34;102267.69;;;7.24;100.00
65880;BME280;52661;51.364;6.054;2024-01-30T02:00:01;102268.84;;;7.23;100.00
65880;BME280;52661;51.364;6.054;2024-01-30T02:02:30;102262.63;;;7.23;100.00
65880;BME280;52661;51.364;6.054;2024-01-30T02:04:57;102258.66;;;7.20;100.00
65880;BME280;52661;51.364;6.054;2024-01-30T02:07:22;102262.16;;;7.21;100.00
65880;BME280;52661;51.364;6.054;2024-01-30T02:09:47;102257.41;;;7.18;100.00
65880;BME280;52661;51.364;6.054;2024-01-30T02:12:13;102259.47;;;7.21;100.00
65880;BME280;52661;51.364;6.054;2024-01-30T02:14:45;102255.19;;;7.20;100.00
65880;BME280;52661;51.364;6.054;2024-01-30T02:17:11;102251.03;;;7.22;100.00
65880;BME280;52661;51.364;6.054;2024-01-30T02:19:37;102254.06;;;7.21;100.00
65880;BME280;52661;51.364;6.054;2024-01-30T02:22:02;102246.63;;;7.18;100.00
65880;BME280;52661;51.364;6.054;2024-01-30T02:24:28;102247.72;;;7.17;100.00
65880;BME280;52661;51.364;6.054;2024-01-30T02:26:53;102250.91;;;7.19;100.00
65880;BME280;52661;51.364;6.054;2024-01-30T02:29:18;102239.19;;;7.15;100.00
65880;BME280;52661;51.364;6.054;2024-01-30T02:31:44;102245.03;;;7.17;100.00
65880;BME280;52661;51.364;6.054;2024-01-30T02:34:11;102241.88;;;7.15;100.00
65880;BME280;52661;51.364;6.054;2024-01-30T02:36:36;102240.16;;;7.10;100.00
65880;BME280;52661;51.364;6.054;2024-01-30T02:39:02;102240.16;;;7.10;100.00
65880;BME280;52661;51.364;6.054;2024-01-30T02:41:27;102236.78;;;7.13;100.00
65880;BME280;52661;51.364;6.054;2024-01-30T02:43:52;102231.22;;;7.18;100.00
65880;BME280;52661;51.364;6.054;2024-01-30T02:46:18;102238.19;;;7.19;100.00
65880;BME280;52661;51.364;6.054;2024-01-30T02:48:43;102233.25;;;7.21;100.00
65880;BME280;52661;51.364;6.054;2024-01-30T02:51:08;102239.31;;;7.18;100.00
65880;BME280;52661;51.364;6.054;2024-01-30T02:53:34;102230.28;;;7.14;100.00
65880;BME280;52661;51.364;6.054;2024-01-30T02:55:59;102240.28;;;7.14;100.00
65880;BME280;52661;51.364;6.054;2024-01-30T02:58:24;102231.88;;;7.15;100.00
65880;BME280;52661;51.364;6.054;2024-01-30T03:00:49;102235.81;;;7.18;100.00
65880;BME280;52661;51.364;6.054;2024-01-30T03:03:15;102229.84;;;7.12;100.00
65880;BME280;52661;51.364;6.054;2024-01-30T03:05:40;102221.38;;;7.14;100.00
65880;BME280;52661;51.364;6.054;2024-01-30T03:08:06;102222.63;;;7.16;100.00
65880;BME280;52661;51.364;6.054;2024-01-30T03:10:31;102223.91;;;7.19;100.00
65880;BME280;52661;51.364;6.054;2024-01-30T03:12:56;102231.88;;;7.15;100.00
65880;BME280;52661;51.364;6.054;2024-01-30T03:15:21;102224.88;;;7.14;100.00
65880;BME280;52661;51.364;6.054;2024-01-30T03:17:48;102225.84;;;7.10;100.00
65880;BME280;52661;51.364;6.054;2024-01-30T03:20:13;102223.50;;;7.08;100.00
65880;BME280;52661;51.364;6.054;2024-01-30T03:22:39;102223.50;;;7.08;100.00
65880;BME280;52661;51.364;6.054;2024-01-30T03:25:04;102221.91;;;7.07;100.00
65880;BME280;52661;51.364;6.054;2024-01-30T03:27:30;102223.50;;;7.08;100.00
65880;BME280;52661;51.364;6.054;2024-01-30T03:29:55;102221.25;;;7.10;100.00
65880;BME280;52661;51.364;6.054;2024-01-30T03:32:20;102216.66;;;7.11;100.00
65880;BME280;52661;51.364;6.054;2024-01-30T03:34:46;102218.09;;;7.08;100.00
65880;BME280;52661;51.364;6.054;2024-01-30T03:37:11;102207.09;;;7.13;100.00
65880;BME280;52661;51.364;6.054;2024-01-30T03:39:36;102215.19;;;7.13;100.00
65880;BME280;52661;51.364;6.054;2024-01-30T03:42:02;102209.94;;;7.17;100.00
65880;BME280;52661;51.364;6.054;2024-01-30T03:44:27;102205.97;;;7.14;100.00
65880;BME280;52661;51.364;6.054;2024-01-30T03:46:52;102205.66;;;7.16;100.00
65880;BME280;52661;51.364;6.054;2024-01-30T03:49:18;102216.78;;;7.14;100.00
65880;BME280;52661;51.364;6.054;2024-01-30T03:51:43;102213.09;;;7.19;100.00
65880;BME280;52661;51.364;6.054;2024-01-30T03:54:09;102206.72;;;7.23;100.00
65880;BME280;52661;51.364;6.054;2024-01-30T03:56:35;102201.44;;;7.27;100.00
65880;BME280;52661;51.364;6.054;2024-01-30T03:59:00;102201.59;;;7.30;100.00
65880;BME280;52661;51.364;6.054;2024-01-30T04:01:27;102193.94;;;7.32;100.00
65880;BME280;52661;51.364;6.054;2024-01-30T04:03:53;102194.84;;;7.36;100.00
65880;BME280;52661;51.364;6.054;2024-01-30T04:06:18;102191.50;;;7.39;100.00
65880;BME280;52661;51.364;6.054;2024-01-30T04:08:43;102196.34;;;7.46;100.00
65880;BME280;52661;51.364;6.054;2024-01-30T04:11:09;102190.63;;;7.48;100.00
65880;BME280;52661;51.364;6.054;2024-01-30T04:13:34;102186.81;;;7.49;100.00
65880;BME280;52661;51.364;6.054;2024-01-30T04:16:00;102186.47;;;7.50;100.00
65880;BME280;52661;51.364;6.054;2024-01-30T04:18:27;102196.59;;;7.53;100.00
65880;BME280;52661;51.364;6.054;2024-01-30T04:20:52;102190.28;;;7.49;100.00
65880;BME280;52661;51.364;6.054;2024-01-30T04:23:17;102192.00;;;7.54;100.00
65880;BME280;52661;51.364;6.054;2024-01-30T04:25:43;102201.09;;;7.49;100.00
65880;BME280;52661;51.364;6.054;2024-01-30T04:28:08;102194.44;;;7.47;100.00
65880;BME280;52661;51.364;6.054;2024-01-30T04:30:33;102194.31;;;7.43;100.00
65880;BME280;52661;51.364;6.054;2024-01-30T04:32:59;102185.78;;;7.41;100.00
65880;BME280;52661;51.364;6.054;2024-01-30T04:35:24;102202.75;;;7.41;100.00
65880;BME280;52661;51.364;6.054;2024-01-30T04:37:52;102192.72;;;7.42;100.00
65880;BME280;52661;51.364;6.054;2024-01-30T04:40:18;102190.03;;;7.42;100.00
65880;BME280;52661;51.364;6.054;2024-01-30T04:42:43;102198.94;;;7.42;100.00
65880;BME280;52661;51.364;6.054;2024-01-30T04:45:10;102197.94;;;7.47;100.00
65880;BME280;52661;51.364;6.054;2024-01-30T04:47:35;102199.84;;;7.47;100.00
65880;BME280;52661;51.364;6.054;2024-01-30T04:50:01;102196.22;;;7.42;100.00
65880;BME280;52661;51.364;6.054;2024-01-30T04:52:27;102196.56;;;7.41;100.00
65880;BME280;52661;51.364;6.054;2024-01-30T04:54:52;102193.41;;;7.39;100.00
65880;BME280;52661;51.364;6.054;2024-01-30T04:57:17;102197.56;;;7.36;100.00
65880;BME280;52661;51.364;6.054;2024-01-30T04:59:43;102187.88;;;7.35;100.00
65880;BME280;52661;51.364;6.054;2024-01-30T05:02:08;102188.22;;;7.34;100.00
65880;BME280;52661;51.364;6.054;2024-01-30T05:04:33;102186.94;;;7.31;100.00
65880;BME280;52661;51.364;6.054;2024-01-30T05:06:59;102189.31;;;7.33;100.00
65880;BME280;52661;51.364;6.054;2024-01-30T05:09:24;102188.84;;;7.31;100.00
65880;BME280;52661;51.364;6.054;2024-01-30T05:11:49;102189.63;;;7.31;100.00
65880;BME280;52661;51.364;6.054;2024-01-30T05:14:15;102182.81;;;7.34;100.00
65880;BME280;52661;51.364;6.054;2024-01-30T05:16:41;102189.09;;;7.38;100.00
65880;BME280;52661;51.364;6.054;2024-01-30T05:19:08;102186.22;;;7.43;100.00
65880;BME280;52661;51.364;6.054;2024-01-30T05:21:33;102176.66;;;7.46;100.00
65880;BME280;52661;51.364;6.054;2024-01-30T05:23:59;102176.66;;;7.46;100.00
65880;BME280;52661;51.364;6.054;2024-01-30T05:26:24;102171.38;;;7.49;100.00
65880;BME280;52661;51.364;6.054;2024-01-30T05:28:49;102169.59;;;7.53;100.00
65880;BME280;52661;51.364;6.054;2024-01-30T05:31:15;102175.34;;;7.52;100.00
65880;BME280;52661;51.364;6.054;2024-01-30T05:33:40;102173.44;;;7.52;100.00
65880;BME280;52661;51.364;6.054;2024-01-30T05:36:06;102174.00;;;7.58;100.00
65880;BME280;52661;51.364;6.054;2024-01-30T05:38:31;102172.22;;;7.62;100.00
65880;BME280;52661;51.364;6.054;2024-01-30T05:40:57;102163.00;;;7.63;100.00
65880;BME280;52661;51.364;6.054;2024-01-30T05:43:25;102173.13;;;7.66;100.00
65880;BME280;52661;51.364;6.054;2024-01-30T05:45:51;102158.53;;;7.67;100.00
65880;BME280;52661;51.364;6.054;2024-01-30T05:48:16;102160.75;;;7.65;100.00
65880;BME280;52661;51.364;6.054;2024-01-30T05:50:42;102160.06;;;7.68;100.00
65880;BME280;52661;51.364;6.054;2024-01-30T05:53:07;102168.66;;;7.70;100.00
65880;BME280;52661;51.364;6.054;2024-01-30T05:55:32;102162.03;;;7.79;100.00
65880;BME280;52661;51.364;6.054;2024-01-30T05:57:58;102160.34;;;7.87;100.00
65880;BME280;52661;51.364;6.054;2024-01-30T06:00:23;102160.81;;;7.89;100.00
65880;BME280;52661;51.364;6.054;2024-01-30T06:02:49;102169.03;;;7.92;100.00
65880;BME280;52661;51.364;6.054;2024-01-30T06:05:14;102160.59;;;7.94;100.00
65880;BME280;52661;51.364;6.054;2024-01-30T06:07:39;102167.00;;;7.89;100.00
65880;BME280;52661;51.364;6.054;2024-01-30T06:10:05;102165.19;;;7.81;100.00
65880;BME280;52661;51.364;6.054;2024-01-30T06:12:31;102174.56;;;7.84;100.00
65880;BME280;52661;51.364;6.054;2024-01-30T06:14:56;102179.97;;;7.84;100.00
65880;BME280;52661;51.364;6.054;2024-01-30T06:17:22;102177.94;;;7.81;100.00
65880;BME280;52661;51.364;6.054;2024-01-30T06:19:48;102178.25;;;7.79;100.00
65880;BME280;52661;51.364;6.054;2024-01-30T06:22:13;102171.25;;;7.78;100.00
65880;BME280;52661;51.364;6.054;2024-01-30T06:24:38;102169.03;;;7.80;100.00
65880;BME280;52661;51.364;6.054;2024-01-30T06:27:04;102168.09;;;7.76;100.00
65880;BME280;52661;51.364;6.054;2024-01-30T06:29:29;102163.38;;;7.73;100.00
65880;BME280;52661;51.364;6.054;2024-01-30T06:31:55;102172.28;;;7.74;100.00
65880;BME280;52661;51.364;6.054;2024-01-30T06:34:20;102164.94;;;7.74;100.00
65880;BME280;52661;51.364;6.054;2024-01-30T06:36:45;102164.59;;;7.76;100.00
65880;BME280;52661;51.364;6.054;2024-01-30T06:39:11;102156.81;;;7.74;100.00
65880;BME280;52661;51.364;6.054;2024-01-30T06:41:36;102161.13;;;7.75;100.00
65880;BME280;52661;51.364;6.054;2024-01-30T06:44:02;102168.44;;;7.75;100.00
65880;BME280;52661;51.364;6.054;2024-01-30T06:46:29;102167.63;;;7.74;100.00
65880;BME280;52661;51.364;6.054;2024-01-30T06:48:55;102175.28;;;7.72;100.00
65880;BME280;52661;51.364;6.054;2024-01-30T06:51:20;102177.69;;;7.74;100.00
65880;BME280;52661;51.364;6.054;2024-01-30T06:53:45;102180.50;;;7.77;100.00
65880;BME280;52661;51.364;6.054;2024-01-30T06:56:11;102188.94;;;7.76;100.00
65880;BME280;52661;51.364;6.054;2024-01-30T06:58:36;102188.69;;;7.69;100.00
65880;BME280;52661;51.364;6.054;2024-01-30T07:01:02;102190.88;;;7.55;100.00
65880;BME280;52661;51.364;6.054;2024-01-30T07:03:27;102194.44;;;7.47;100.00
65880;BME280;52661;51.364;6.054;2024-01-30T07:05:52;102191.94;;;7.41;100.00
65880;BME280;52661;51.364;6.054;2024-01-30T07:08:17;102189.31;;;7.33;100.00
65880;BME280;52661;51.364;6.054;2024-01-30T07:10:43;102191.28;;;7.24;100.00
65880;BME280;52661;51.364;6.054;2024-01-30T07:13:12;102199.25;;;7.20;100.00
65880;BME280;52661;51.364;6.054;2024-01-30T07:15:38;102199.13;;;7.17;100.00
65880;BME280;52661;51.364;6.054;2024-01-30T07:18:05;102212.03;;;7.11;100.00
65880;BME280;52661;51.364;6.054;2024-01-30T07:20:31;102212.69;;;7.08;100.00
65880;BME280;52661;51.364;6.054;2024-01-30T07:22:58;102213.69;;;7.04;100.00
65880;BME280;52661;51.364;6.054;2024-01-30T07:25:23;102218.75;;;7.05;100.00
65880;BME280;52661;51.364;6.054;2024-01-30T07:27:54;102212.63;;;7.17;100.00
65880;BME280;52661;51.364;6.054;2024-01-30T07:30:20;102222.59;;;7.25;100.00
65880;BME280;52661;51.364;6.054;2024-01-30T07:32:46;102223.97;;;7.31;100.00
65880;BME280;52661;51.364;6.054;2024-01-30T07:35:13;102221.53;;;7.38;100.00
65880;BME280;52661;51.364;6.054;2024-01-30T07:37:38;102228.59;;;7.51;100.00
65880;BME280;52661;51.364;6.054;2024-01-30T07:40:04;102232.50;;;7.74;100.00
65880;BME280;52661;51.364;6.054;2024-01-30T07:42:29;102239.53;;;7.87;100.00
65880;BME280;52661;51.364;6.054;2024-01-30T07:44:54;102247.22;;;7.98;100.00
65880;BME280;52661;51.364;6.054;2024-01-30T07:47:20;102251.91;;;8.09;100.00
65880;BME280;52661;51.364;6.054;2024-01-30T07:49:45;102243.47;;;8.23;100.00
65880;BME280;52661;51.364;6.054;2024-01-30T07:52:10;102249.94;;;8.30;100.00
65880;BME280;52661;51.364;6.054;2024-01-30T07:54:48;102246.78;;;8.28;100.00
65880;BME280;52661;51.364;6.054;2024-01-30T07:57:14;102244.72;;;8.25;100.00
65880;BME280;52661;51.364;6.054;2024-01-30T07:59:42;102250.75;;;8.31;100.00
65880;BME280;52661;51.364;6.054;2024-01-30T08:02:07;102256.59;;;8.33;100.00
65880;BME280;52661;51.364;6.054;2024-01-30T08:04:33;102256.03;;;8.39;100.00
65880;BME280;52661;51.364;6.054;2024-01-30T08:06:58;102256.28;;;8.34;100.00
65880;BME280;52661;51.364;6.054;2024-01-30T08:09:23;102259.88;;;8.38;100.00
65880;BME280;52661;51.364;6.054;2024-01-30T08:11:49;102256.03;;;8.39;100.00
65880;BME280;52661;51.364;6.054;2024-01-30T08:14:14;102266.41;;;8.37;100.00
65880;BME280;52661;51.364;6.054;2024-01-30T08:16:39;102263.03;;;8.40;100.00
65880;BME280;52661;51.364;6.054;2024-01-30T08:19:05;102273.31;;;8.47;100.00
65880;BME280;52661;51.364;6.054;2024-01-30T08:21:30;102276.13;;;8.51;100.00
65880;BME280;52661;51.364;6.054;2024-01-30T08:23:55;102268.25;;;8.46;100.00
65880;BME280;52661;51.364;6.054;2024-01-30T08:26:21;102282.56;;;8.46;100.00
65880;BME280;52661;51.364;6.054;2024-01-30T08:28:46;102282.34;;;8.51;100.00
65880;BME280;52661;51.364;6.054;2024-01-30T08:31:11;102285.84;;;8.52;100.00
65880;BME280;52661;51.364;6.054;2024-01-30T08:33:39;102286.41;;;8.57;100.00
65880;BME280;52661;51.364;6.054;2024-01-30T08:36:05;102285.63;;;8.57;100.00
65880;BME280;52661;51.364;6.054;2024-01-30T08:38:30;102290.13;;;8.65;100.00
65880;BME280;52661;51.364;6.054;2024-01-30T08:40:56;102285.84;;;8.76;100.00
65880;BME280;52661;51.364;6.054;2024-01-30T08:43:21;102278.75;;;8.83;100.00
65880;BME280;52661;51.364;6.054;2024-01-30T08:45:46;102297.63;;;9.04;100.00
65880;BME280;52661;51.364;6.054;2024-01-30T08:48:12;102296.56;;;9.21;100.00
65880;BME280;52661;51.364;6.054;2024-01-30T08:50:37;102296.09;;;9.19;100.00
65880;BME280;52661;51.364;6.054;2024-01-30T08:53:04;102300.63;;;9.27;100.00
65880;BME280;52661;51.364;6.054;2024-01-30T08:55:29;102306.84;;;9.27;100.00
65880;BME280;52661;51.364;6.054;2024-01-30T08:57:54;102300.03;;;9.33;100.00
65880;BME280;52661;51.364;6.054;2024-01-30T09:00:20;102306.03;;;9.39;100.00
65880;BME280;52661;51.364;6.054;2024-01-30T09:02:45;102285.38;;;9.34;100.00
65880;BME280;52661;51.364;6.054;2024-01-30T09:05:10;102294.06;;;9.40;100.00
65880;BME280;52661;51.364;6.054;2024-01-30T09:07:36;102290.22;;;9.41;100.00
65880;BME280;52661;51.364;6.054;2024-01-30T09:10:01;102294.19;;;9.44;100.00
65880;BME280;52661;51.364;6.054;2024-01-30T09:12:27;102283.53;;;9.51;100.00
65880;BME280;52661;51.364;6.054;2024-01-30T09:14:52;102285.09;;;9.52;100.00
65880;BME280;52661;51.364;6.054;2024-01-30T09:17:17;102283.53;;;9.51;100.00
65880;BME280;52661;51.364;6.054;2024-01-30T09:19:43;102283.75;;;9.58;100.00
65880;BME280;52661;51.364;6.054;2024-01-30T09:22:08;102294.25;;;9.59;100.00
65880;BME280;52661;51.364;6.054;2024-01-30T09:24:34;102298.53;;;9.60;100.00
65880;BME280;52661;51.364;6.054;2024-01-30T09:26:59;102300.25;;;9.53;100.00
65880;BME280;52661;51.364;6.054;2024-01-30T09:29:25;102295.13;;;9.63;100.00
65880;BME280;52661;51.364;6.054;2024-01-30T09:31:50;102298.63;;;9.64;100.00
65880;BME280;52661;51.364;6.054;2024-01-30T09:34:15;102299.53;;;9.68;100.00
65880;BME280;52661;51.364;6.054;2024-01-30T09:36:40;102310.59;;;9.75;100.00
65880;BME280;52661;51.364;6.054;2024-01-30T09:39:06;102307.44;;;9.73;100.00
65880;BME280;52661;51.364;6.054;2024-01-30T09:41:32;102309.69;;;9.71;100.00
65880;BME280;52661;51.364;6.054;2024-01-30T09:43:59;102309.47;;;9.76;100.00
65880;BME280;52661;51.364;6.054;2024-01-30T09:46:27;102300.44;;;9.72;100.00
65880;BME280;52661;51.364;6.054;2024-01-30T09:48:53;102305.94;;;9.75;100.00
65880;BME280;52661;51.364;6.054;2024-01-30T09:51:20;102307.53;;;9.76;100.00
65880;BME280;52661;51.364;6.054;2024-01-30T09:53:46;102312.28;;;9.79;100.00
65880;BME280;52661;51.364;6.054;2024-01-30T09:56:15;102318.03;;;9.78;100.00
65880;BME280;52661;51.364;6.054;2024-01-30T09:58:41;102310.59;;;9.75;100.00
65880;BME280;52661;51.364;6.054;2024-01-30T10:01:07;102316.34;;;9.73;100.00
65880;BME280;52661;51.364;6.054;2024-01-30T10:03:32;102320.84;;;9.81;100.00
65880;BME280;52661;51.364;6.054;2024-01-30T10:05:58;102329.03;;;9.97;100.00
65880;BME280;52661;51.364;6.054;2024-01-30T10:08:26;102323.94;;;9.96;100.00
65880;BME280;52661;51.364;6.054;2024-01-30T10:10:51;102329.56;;;10.03;100.00
65880;BME280;52661;51.364;6.054;2024-01-30T10:13:17;102326.16;;;10.06;100.00
65880;BME280;52661;51.364;6.054;2024-01-30T10:15:42;102339.50;;;10.11;100.00
65880;BME280;52661;51.364;6.054;2024-01-30T10:18:10;102338.81;;;10.14;100.00
65880;BME280;52661;51.364;6.054;2024-01-30T10:20:37;102336.09;;;10.14;100.00
65880;BME280;52661;51.364;6.054;2024-01-30T10:23:02;102342.66;;;10.13;100.00
65880;BME280;52661;51.364;6.054;2024-01-30T10:25:28;102336.44;;;10.12;100.00
65880;BME280;52661;51.364;6.054;2024-01-30T10:27:55;102333.16;;;10.19;100.00
65880;BME280;52661;51.364;6.054;2024-01-30T10:30:24;102333.06;;;10.15;100.00
65880;BME280;52661;51.364;6.054;2024-01-30T10:32:50;102342.81;;;10.16;100.00
65880;BME280;52661;51.364;6.054;2024-01-30T10:35:16;102332.03;;;10.20;100.00
65880;BME280;52661;51.364;6.054;2024-01-30T10:37:43;102329.84;;;10.25;100.00
65880;BME280;52661;51.364;6.054;2024-01-30T10:40:12;102331.78;;;10.25;100.00
65880;BME280;52661;51.364;6.054;2024-01-30T10:42:42;102328.38;;;10.28;100.00
65880;BME280;52661;51.364;6.054;2024-01-30T10:45:09;102321.81;;;10.29;100.00
65880;BME280;52661;51.364;6.054;2024-01-30T10:47:39;102329.72;;;10.34;100.00
65880;BME280;52661;51.364;6.054;2024-01-30T10:50:05;102335.75;;;10.43;100.00
65880;BME280;52661;51.364;6.054;2024-01-30T10:52:32;102330.41;;;10.47;100.00
65880;BME280;52661;51.364;6.054;2024-01-30T10:54:58;102328.16;;;10.49;100.00
65880;BME280;52661;51.364;6.054;2024-01-30T10:57:24;102330.59;;;10.54;100.00
65880;BME280;52661;51.364;6.054;2024-01-30T10:59:51;102330.34;;;10.59;100.00
65880;BME280;52661;51.364;6.054;2024-01-30T11:02:18;102331.81;;;10.56;100.00
65880;BME280;52661;51.364;6.054;2024-01-30T11:04:45;102335.19;;;10.65;100.00
65880;BME280;52661;51.364;6.054;2024-01-30T11:07:15;102330.69;;;10.57;100.00
65880;BME280;52661;51.364;6.054;2024-01-30T11:09:48;102337.00;;;10.61;100.00
65880;BME280;52661;51.364;6.054;2024-01-30T11:12:13;102330.88;;;10.64;100.00
65880;BME280;52661;51.364;6.054;2024-01-30T11:14:39;102341.13;;;10.71;100.00
65880;BME280;52661;51.364;6.054;2024-01-30T11:17:05;102339.66;;;10.73;100.00
65880;BME280;52661;51.364;6.054;2024-01-30T11:19:31;102338.78;;;10.69;100.00
65880;BME280;52661;51.364;6.054;2024-01-30T11:21:57;102337.47;;;10.79;100.00
65880;BME280;52661;51.364;6.054;2024-01-30T11:24:23;102346.72;;;10.78;100.00
65880;BME280;52661;51.364;6.054;2024-01-30T11:27:02;102338.69;;;10.81;100.00
65880;BME280;52661;51.364;6.054;2024-01-30T11:29:28;102337.72;;;10.90;100.00
65880;BME280;52661;51.364;6.054;2024-01-30T11:31:54;102330.72;;;10.89;100.00
65880;BME280;52661;51.364;6.054;2024-01-30T11:34:20;102328.09;;;10.92;100.00
65880;BME280;52661;51.364;6.054;2024-01-30T11:36:52;102330.44;;;10.94;100.00
65880;BME280;52661;51.364;6.054;2024-01-30T11:39:24;102340.72;;;10.84;100.00
65880;BME280;52661;51.364;6.054;2024-01-30T11:41:53;102330.53;;;10.97;100.00
65880;BME280;52661;51.364;6.054;2024-01-30T11:44:19;102326.94;;;10.93;100.00
65880;BME280;52661;51.364;6.054;2024-01-30T11:46:47;102332.91;;;10.83;100.00
65880;BME280;52661;51.364;6.054;2024-01-30T11:49:13;102334.91;;;10.86;100.00
65880;BME280;52661;51.364;6.054;2024-01-30T11:51:38;102337.81;;;10.93;100.00
65880;BME280;52661;51.364;6.054;2024-01-30T11:54:03;102346.41;;;10.95;100.00
65880;BME280;52661;51.364;6.054;2024-01-30T11:56:29;102331.06;;;11.03;100.00
65880;BME280;52661;51.364;6.054;2024-01-30T11:58:54;102329.22;;;11.07;100.00
65880;BME280;52661;51.364;6.054;2024-01-30T12:01:20;102336.38;;;11.15;100.00
65880;BME280;52661;51.364;6.054;2024-01-30T12:03:51;102335.75;;;11.21;100.00
65880;BME280;52661;51.364;6.054;2024-01-30T12:06:16;102323.97;;;11.14;100.00
65880;BME280;52661;51.364;6.054;2024-01-30T12:08:42;102331.47;;;11.20;100.00
65880;BME280;52661;51.364;6.054;2024-01-30T12:11:07;102326.38;;;11.19;100.00
65880;BME280;52661;51.364;6.054;2024-01-30T12:13:33;102320.69;;;11.24;100.00
65880;BME280;52661;51.364;6.054;2024-01-30T12:16:00;102325.06;;;11.28;100.00
65880;BME280;52661;51.364;6.054;2024-01-30T12:18:26;102329.81;;;11.31;100.00
65880;BME280;52661;51.364;6.054;2024-01-30T12:21:00;102325.84;;;11.29;100.00
65880;BME280;52661;51.364;6.054;2024-01-30T12:23:28;102327.09;;;11.31;100.00
65880;BME280;52661;51.364;6.054;2024-01-30T12:25:54;102320.63;;;11.40;100.00
65880;BME280;52661;51.364;6.054;2024-01-30T12:28:20;102324.44;;;11.35;100.00
65880;BME280;52661;51.364;6.054;2024-01-30T12:30:46;102327.88;;;11.32;100.00
65880;BME280;52661;51.364;6.054;2024-01-30T12:33:19;102337.16;;;11.31;100.00
65880;BME280;52661;51.364;6.054;2024-01-30T12:35:47;102342.69;;;11.34;100.00
65880;BME280;52661;51.364;6.054;2024-01-30T12:38:14;102329.72;;;11.28;100.00
65880;BME280;52661;51.364;6.054;2024-01-30T12:40:39;102323.91;;;11.29;100.00